createdAt,value
2018-10-05T00:01:25.349Z,13.40
2018-10-05T00:03:55.489Z,15.50
2018-10-05T00:06:25.677Z,14.43
2018-10-05T00:08:55.801Z,10.40
2018-10-05T00:11:26.019Z,13.87
2018-10-05T00:13:56.187Z,13.97
2018-10-05T00:16:26.337Z,22.50
2018-10-05T00:18:56.485Z,57.07
2018-10-05T00:21:26.675Z,21.13
2018-10-05T00:23:56.853Z,42.67
2018-10-05T00:26:27.102Z,25.00
2018-10-05T00:28:57.315Z,14.60
2018-10-05T00:31:27.544Z,12.73
2018-10-05T00:33:57.677Z,11.80
2018-10-05T00:36:27.890Z,12.30
2018-10-05T00:38:58.000Z,11.90
2018-10-05T00:41:28.139Z,11.43
2018-10-05T00:43:58.310Z,8.80
2018-10-05T00:46:28.538Z,14.23
2018-10-05T00:48:58.712Z,10.10
2018-10-05T00:51:29.220Z,10.90
2018-10-05T00:53:59.336Z,10.53
2018-10-05T00:56:29.465Z,11.60
2018-10-05T00:58:59.665Z,11.73
2018-10-05T01:01:29.841Z,11.27
2018-10-05T01:04:00.082Z,10.83
2018-10-05T01:06:30.224Z,10.87
2018-10-05T01:09:01.249Z,10.00
2018-10-05T01:11:31.494Z,11.90
2018-10-05T01:14:01.650Z,12.70
2018-10-05T01:16:31.768Z,9.63
2018-10-05T01:19:02.011Z,8.67
2018-10-05T01:21:32.184Z,7.20
2018-10-05T01:24:02.305Z,7.37
2018-10-05T01:26:32.461Z,7.83
2018-10-05T01:29:02.630Z,7.63
2018-10-05T01:31:32.774Z,8.23
2018-10-05T01:34:02.997Z,8.57
2018-10-05T01:36:33.233Z,11.57
2018-10-05T01:39:03.489Z,23.17
2018-10-05T01:41:33.799Z,16.67
2018-10-05T01:44:03.964Z,12.63
2018-10-05T01:46:34.160Z,11.00
2018-10-05T01:49:04.488Z,13.10
2018-10-05T01:51:35.853Z,10.63
2018-10-05T01:54:06.775Z,11.43
2018-10-05T01:56:37.072Z,9.73
2018-10-05T01:59:07.208Z,10.60
2018-10-05T02:01:37.350Z,12.60
2018-10-05T02:04:07.474Z,9.63
2018-10-05T02:06:37.589Z,10.60
2018-10-05T02:09:07.812Z,9.60
2018-10-05T02:11:37.928Z,9.33
2018-10-05T02:14:08.055Z,12.03
2018-10-05T02:16:38.194Z,10.67
2018-10-05T02:19:08.301Z,10.37
2018-10-05T02:21:38.457Z,11.83
2018-10-05T02:24:08.661Z,21.87
2018-10-05T02:26:38.846Z,15.80
2018-10-05T02:29:08.985Z,9.53
2018-10-05T02:31:39.097Z,10.37
2018-10-05T02:34:09.228Z,11.17
2018-10-05T02:36:39.337Z,10.93
2018-10-05T02:39:12.257Z,11.07
2018-10-05T02:41:42.902Z,9.37
2018-10-05T02:44:12.960Z,10.50
2018-10-05T02:46:43.217Z,10.50
2018-10-05T02:49:13.351Z,10.13
2018-10-05T02:51:43.508Z,9.57
2018-10-05T02:54:13.626Z,10.50
2018-10-05T02:56:43.780Z,10.43
2018-10-05T02:59:14.297Z,10.90
2018-10-05T03:02:01.240Z,10.90
2018-10-05T03:04:31.332Z,10.93
2018-10-05T03:07:02.503Z,9.67
2018-10-05T03:09:33.332Z,10.70
2018-10-05T03:12:06.604Z,10.67
2018-10-05T03:14:36.697Z,9.70
2018-10-05T03:17:06.892Z,12.40
2018-10-05T03:19:37.061Z,37.90
2018-10-05T03:22:07.202Z,27.27
2018-10-05T03:24:37.401Z,11.40
2018-10-05T03:27:07.558Z,9.57
2018-10-05T03:29:37.737Z,12.03
2018-10-05T03:32:08.099Z,11.70
2018-10-05T03:34:38.668Z,11.33
2018-10-05T03:37:09.068Z,13.07
2018-10-05T03:39:39.552Z,13.77
2018-10-05T03:42:09.818Z,11.40
2018-10-05T03:44:40.487Z,10.73
2018-10-05T03:47:11.250Z,11.43
2018-10-05T03:49:41.436Z,11.60
2018-10-05T03:52:11.859Z,9.70
2018-10-05T03:54:42.270Z,9.43
2018-10-05T03:57:12.633Z,12.33
2018-10-05T03:59:43.061Z,10.77
2018-10-05T04:02:13.529Z,9.00
2018-10-05T04:04:44.039Z,10.17
2018-10-05T04:07:14.381Z,9.47
2018-10-05T04:09:44.893Z,11.40
2018-10-05T04:12:15.536Z,13.60
2018-10-05T04:14:46.008Z,12.17
2018-10-05T04:17:16.397Z,13.63
2018-10-05T04:19:46.866Z,13.23
2018-10-05T04:22:22.320Z,9.53
2018-10-05T04:24:52.800Z,11.30
2018-10-05T04:27:23.185Z,11.87
2018-10-05T04:29:53.975Z,17.33
2018-10-05T04:32:24.288Z,22.67
2018-10-05T04:34:55.043Z,14.37
2018-10-05T04:37:25.912Z,11.60
2018-10-05T04:39:56.437Z,11.10
2018-10-05T04:42:26.965Z,12.80
2018-10-05T04:44:57.241Z,11.00
2018-10-05T04:47:27.696Z,12.10
2018-10-05T04:49:58.098Z,16.20
2018-10-05T04:52:28.686Z,15.73
2018-10-05T04:54:59.126Z,16.57
2018-10-05T04:57:29.652Z,18.30
2018-10-05T04:59:59.940Z,16.70
2018-10-05T05:02:30.361Z,15.90
2018-10-05T05:05:00.684Z,13.13
2018-10-05T05:07:31.216Z,14.27
2018-10-05T05:10:01.508Z,11.83
2018-10-05T05:12:32.778Z,13.70
2018-10-05T05:15:03.038Z,10.90
2018-10-05T05:17:33.340Z,12.93
2018-10-05T05:20:03.998Z,11.70
2018-10-05T05:22:34.449Z,10.10
2018-10-05T05:25:04.866Z,11.47
2018-10-05T05:27:35.068Z,11.20
2018-10-05T05:30:05.688Z,14.93
2018-10-05T05:32:36.548Z,13.10
2018-10-05T05:35:07.599Z,11.37
2018-10-05T05:37:39.384Z,10.83
2018-10-05T05:40:12.032Z,10.17
2018-10-05T05:42:44.143Z,8.90
2018-10-05T05:45:16.238Z,8.80
2018-10-05T05:47:50.049Z,11.90
2018-10-05T05:50:21.700Z,11.63
2018-10-05T05:52:53.275Z,9.70
2018-10-05T05:55:25.674Z,8.10
2018-10-05T05:57:57.140Z,7.63
2018-10-05T06:00:28.769Z,9.53
2018-10-05T06:03:00.974Z,9.83
2018-10-05T06:05:32.863Z,9.57
2018-10-05T06:08:13.816Z,8.73
2018-10-05T06:10:45.385Z,12.70
2018-10-05T06:13:16.378Z,10.10
2018-10-05T06:15:47.937Z,9.70
2018-10-05T06:18:20.087Z,8.60
2018-10-05T06:20:51.039Z,9.43
2018-10-05T06:23:22.830Z,8.40
2018-10-05T06:25:54.339Z,9.93
2018-10-05T06:28:25.548Z,9.00
2018-10-05T06:30:57.115Z,11.60
2018-10-05T06:33:29.087Z,10.13
2018-10-05T06:35:59.740Z,9.83
2018-10-05T06:38:30.286Z,12.20
2018-10-05T06:41:02.348Z,11.23
2018-10-05T06:43:32.751Z,11.50
2018-10-05T06:46:06.180Z,9.43
2018-10-05T06:48:40.405Z,10.53
2018-10-05T06:51:10.898Z,9.80
2018-10-05T06:53:41.264Z,8.83
2018-10-05T06:56:12.043Z,10.10
2018-10-05T06:58:44.263Z,8.93
2018-10-05T07:01:15.182Z,8.77
2018-10-05T07:03:46.549Z,9.43
2018-10-05T07:06:17.349Z,8.17
2018-10-05T07:08:59.550Z,9.73
2018-10-05T07:11:30.899Z,9.37
2018-10-05T07:14:01.378Z,6.70
2018-10-05T07:16:47.296Z,7.07
2018-10-05T07:19:19.195Z,8.93
2018-10-05T07:21:50.249Z,7.43
2018-10-05T07:24:21.205Z,8.40
2018-10-05T07:26:52.222Z,9.07
2018-10-05T07:29:25.772Z,8.20
2018-10-05T07:31:56.609Z,9.67
2018-10-05T07:34:27.415Z,9.17
2018-10-05T07:36:59.395Z,8.67
2018-10-05T07:39:30.002Z,8.10
2018-10-05T07:42:02.144Z,10.93
2018-10-05T07:44:34.190Z,9.30
2018-10-05T07:47:08.547Z,6.80
2018-10-05T07:49:40.333Z,10.20
2018-10-05T07:52:11.641Z,8.83
2018-10-05T07:54:43.307Z,11.13
2018-10-05T07:57:14.076Z,9.00
2018-10-05T07:59:45.393Z,9.93
2018-10-05T08:02:18.424Z,8.17
2018-10-05T08:04:49.654Z,8.07
2018-10-05T08:07:20.603Z,8.10
2018-10-05T08:09:53.038Z,10.93
2018-10-05T08:12:26.185Z,7.67
2018-10-05T08:14:57.929Z,9.13
2018-10-05T08:17:28.833Z,9.50
2018-10-05T08:20:03.393Z,11.90
2018-10-05T08:22:34.423Z,11.60
2018-10-05T08:25:05.425Z,9.83
2018-10-05T08:27:37.191Z,12.30
2018-10-05T08:30:09.309Z,13.03
2018-10-05T08:32:40.296Z,9.90
2018-10-05T08:35:12.307Z,9.50
2018-10-05T08:37:44.182Z,9.77
2018-10-05T08:40:16.047Z,12.73
2018-10-05T08:42:48.849Z,10.63
2018-10-05T08:45:22.640Z,8.83
2018-10-05T08:47:54.143Z,8.73
2018-10-05T08:50:26.825Z,10.27
2018-10-05T08:52:59.422Z,9.57
2018-10-05T08:55:32.977Z,13.00
2018-10-05T08:58:03.747Z,8.90
2018-10-05T09:00:36.765Z,8.97
2018-10-05T09:03:11.827Z,8.20
2018-10-05T09:05:44.318Z,10.00
2018-10-05T09:08:17.663Z,10.27
2018-10-05T09:10:49.675Z,8.63
2018-10-05T09:13:20.523Z,8.93
2018-10-05T09:15:52.705Z,12.80
2018-10-05T09:18:25.716Z,9.10
2018-10-05T09:20:58.845Z,8.53
2018-10-05T09:23:31.224Z,10.17
2018-10-05T09:26:02.722Z,13.73
2018-10-05T09:28:37.092Z,16.23
2018-10-05T09:31:11.327Z,17.83
2018-10-05T09:33:43.146Z,11.20
2018-10-05T09:36:13.963Z,9.73
2018-10-05T09:38:44.377Z,10.57
2018-10-05T09:41:15.997Z,14.00
2018-10-05T09:43:46.868Z,9.90
2018-10-05T09:46:18.307Z,16.40
2018-10-05T09:48:50.510Z,10.50
2018-10-05T09:51:21.320Z,11.00
2018-10-05T09:53:52.155Z,16.70
2018-10-05T09:56:23.739Z,12.87
2018-10-05T09:58:56.142Z,10.17
2018-10-05T10:01:33.980Z,11.67
2018-10-05T10:04:07.192Z,11.50
2018-10-05T10:06:37.925Z,16.70
2018-10-05T10:09:10.332Z,23.40
2018-10-05T10:11:52.600Z,12.50
2018-10-05T10:14:23.910Z,11.80
2018-10-05T10:16:55.147Z,9.83
2018-10-05T10:19:27.256Z,11.90
2018-10-05T10:21:57.905Z,10.70
2018-10-05T10:24:28.882Z,10.07
2018-10-05T10:26:59.397Z,8.77
2018-10-05T10:29:29.855Z,10.43
2018-10-05T10:32:00.391Z,9.83
2018-10-05T10:34:33.750Z,9.10
2018-10-05T10:37:04.739Z,9.27
2018-10-05T10:39:37.849Z,7.43
2018-10-05T10:42:08.469Z,7.70
2018-10-05T10:44:38.946Z,12.00
2018-10-05T10:47:21.601Z,8.87
2018-10-05T10:49:52.415Z,10.13
2018-10-05T10:52:25.556Z,9.53
2018-10-05T10:54:56.963Z,10.40
2018-10-05T10:57:27.627Z,9.90
2018-10-05T10:59:58.216Z,8.50
2018-10-05T11:02:28.838Z,8.07
2018-10-05T11:04:59.799Z,7.73
2018-10-05T11:07:31.301Z,8.47
2018-10-05T11:10:02.317Z,8.37
2018-10-05T11:12:33.425Z,8.27
2018-10-05T11:15:03.842Z,9.33
2018-10-05T11:17:35.411Z,9.10
2018-10-05T11:20:07.745Z,7.70
2018-10-05T11:22:38.485Z,8.87
2018-10-05T11:25:08.935Z,9.37
2018-10-05T11:27:40.480Z,7.57
2018-10-05T11:30:13.684Z,10.30
2018-10-05T11:32:44.211Z,10.93
2018-10-05T11:35:14.743Z,8.93
2018-10-05T11:37:45.153Z,10.20
2018-10-05T11:40:15.586Z,9.87
2018-10-05T11:42:46.140Z,12.53
2018-10-05T11:45:23.527Z,10.93
2018-10-05T11:47:53.989Z,9.17
2018-10-05T11:50:24.716Z,11.80
2018-10-05T11:52:55.218Z,10.50
2018-10-05T11:55:25.959Z,12.33
2018-10-05T11:57:56.526Z,13.30
2018-10-05T12:00:27.278Z,8.73
2018-10-05T12:02:57.969Z,7.83
2018-10-05T12:05:30.230Z,10.20
2018-10-05T12:08:03.990Z,9.17
2018-10-05T12:10:37.245Z,10.33
2018-10-05T12:13:07.828Z,13.50
2018-10-05T12:15:38.497Z,9.73
2018-10-05T12:18:09.329Z,10.80
2018-10-05T12:20:42.180Z,9.30
2018-10-05T12:23:12.507Z,9.30
2018-10-05T12:25:42.989Z,8.37
2018-10-05T12:28:13.619Z,11.03
2018-10-05T12:30:44.229Z,8.77
2018-10-05T12:33:15.146Z,9.90
2018-10-05T12:35:45.961Z,9.63
2018-10-05T12:38:16.911Z,9.63
2018-10-05T12:40:47.409Z,10.63
2018-10-05T12:43:20.205Z,11.50
2018-10-05T12:45:50.760Z,11.80
2018-10-05T12:48:21.365Z,10.27
2018-10-05T12:50:52.140Z,10.93
2018-10-05T12:53:22.468Z,11.57
2018-10-05T12:55:52.952Z,11.67
2018-10-05T12:58:23.831Z,11.43
2018-10-05T13:00:54.408Z,9.87
2018-10-05T13:03:25.350Z,10.83
2018-10-05T13:05:55.949Z,10.73
2018-10-05T13:08:26.429Z,11.53
2018-10-05T13:10:57.005Z,11.77
2018-10-05T13:13:27.592Z,10.27
2018-10-05T13:15:58.324Z,10.03
2018-10-05T13:18:29.101Z,9.63
2018-10-05T13:20:59.665Z,10.00
2018-10-05T13:23:41.111Z,11.07
2018-10-05T13:26:23.121Z,9.53
2018-10-05T13:29:16.697Z,10.60
2018-10-05T13:32:02.702Z,10.40
2018-10-05T13:34:48.470Z,9.30
2018-10-05T13:37:31.815Z,11.30
2018-10-05T13:40:15.861Z,9.47
2018-10-05T13:42:54.980Z,10.37
2018-10-05T13:45:34.420Z,10.93
2018-10-05T13:48:19.998Z,11.30
2018-10-05T13:51:05.070Z,10.63
2018-10-05T13:53:49.838Z,9.93
2018-10-05T13:56:39.513Z,11.17
2018-10-05T13:59:23.661Z,10.23
2018-10-05T14:02:06.684Z,9.60
2018-10-05T14:04:55.645Z,11.00
2018-10-05T14:07:44.761Z,11.17
2018-10-05T14:10:28.509Z,11.07
2018-10-05T14:13:08.225Z,10.53
2018-10-05T14:15:47.079Z,10.67
2018-10-05T14:18:29.386Z,10.83
2018-10-05T14:21:08.762Z,10.60
2018-10-05T14:23:45.129Z,11.83
2018-10-05T14:26:31.941Z,11.60
2018-10-05T14:29:13.392Z,12.03
2018-10-05T14:31:54.654Z,11.47
2018-10-05T14:34:38.237Z,12.00
2018-10-05T14:37:21.203Z,9.93
2018-10-05T14:40:08.453Z,10.60
2018-10-05T14:42:52.009Z,11.17
2018-10-05T14:45:37.603Z,10.17
2018-10-05T14:48:21.006Z,11.53
2018-10-05T14:51:12.152Z,10.53
2018-10-05T14:53:55.756Z,13.60
2018-10-05T14:56:39.393Z,14.73
2018-10-05T14:59:25.006Z,13.43
2018-10-05T15:02:13.764Z,12.87
2018-10-05T15:05:01.701Z,10.27
2018-10-05T15:07:44.119Z,11.93
2018-10-05T15:10:34.634Z,12.30
2018-10-05T15:13:35.556Z,12.67
2018-10-05T15:16:18.866Z,10.80
2018-10-05T15:19:02.502Z,10.00
2018-10-05T15:21:52.985Z,11.07
2018-10-05T15:24:44.628Z,11.40
2018-10-05T15:27:32.065Z,10.60
2018-10-05T15:30:13.653Z,11.83
2018-10-05T15:32:59.035Z,11.67
2018-10-05T15:35:54.948Z,11.37
2018-10-05T15:38:33.119Z,11.07
2018-10-05T15:41:14.645Z,10.57
2018-10-05T15:43:53.479Z,12.17
2018-10-05T15:47:11.118Z,12.73
2018-10-05T15:49:56.402Z,13.97
2018-10-05T15:52:36.860Z,14.03
2018-10-05T15:55:18.025Z,17.50
2018-10-05T15:57:59.426Z,15.23
2018-10-05T16:00:55.030Z,14.57
2018-10-05T16:03:52.659Z,13.00
2018-10-05T16:06:44.447Z,67.97
2018-10-05T16:09:39.258Z,35.40
2018-10-05T16:12:30.320Z,82.97
2018-10-05T16:15:16.453Z,36.87
2018-10-05T16:17:58.329Z,24.90
2018-10-05T16:20:45.346Z,17.03
2018-10-05T16:23:26.010Z,16.07
2018-10-05T16:26:19.490Z,15.10
2018-10-05T16:29:08.030Z,18.97
2018-10-05T16:31:55.874Z,20.97
2018-10-05T16:34:43.704Z,21.33
2018-10-05T16:37:27.004Z,21.60
2018-10-05T16:40:09.746Z,24.67
2018-10-05T16:42:52.772Z,32.27
2018-10-05T16:45:36.595Z,29.60
2018-10-05T16:48:32.132Z,36.77
2018-10-05T16:51:24.775Z,41.37
2018-10-05T16:54:11.910Z,36.37
2018-10-05T16:57:02.540Z,32.57
2018-10-05T16:59:50.942Z,29.43
2018-10-05T17:05:35.010Z,28.40
2018-10-05T17:08:20.511Z,28.50
2018-10-05T17:11:07.515Z,29.83
2018-10-05T17:16:41.641Z,33.00
2018-10-05T17:19:20.056Z,28.87
2018-10-05T17:22:02.644Z,26.77
2018-10-05T17:24:39.751Z,24.77
2018-10-05T17:27:24.645Z,26.97
2018-10-05T17:30:09.559Z,25.77
2018-10-05T17:32:47.080Z,24.17
2018-10-05T17:35:35.458Z,25.37
2018-10-05T17:38:21.199Z,24.10
2018-10-05T17:41:05.772Z,23.67
2018-10-05T17:43:46.936Z,26.50
2018-10-05T17:46:45.508Z,23.10
2018-10-05T17:49:31.429Z,24.83
2018-10-05T17:52:14.399Z,26.20
2018-10-05T17:54:55.938Z,25.63
2018-10-05T17:57:38.449Z,26.40
2018-10-05T18:00:18.540Z,25.10
2018-10-05T18:02:56.223Z,25.53
2018-10-05T18:05:39.876Z,22.30
2018-10-05T18:08:23.113Z,21.70
2018-10-05T18:11:04.079Z,22.63
2018-10-05T18:13:41.062Z,22.97
2018-10-05T18:16:24.553Z,22.90
2018-10-05T18:19:15.301Z,20.73
2018-10-05T18:21:54.061Z,23.30
2018-10-05T18:24:37.718Z,22.10
2018-10-05T18:27:21.866Z,24.00
2018-10-05T18:29:59.052Z,22.63
2018-10-05T18:32:36.039Z,22.80
2018-10-05T18:35:13.645Z,22.77
2018-10-05T18:37:53.832Z,25.80
2018-10-05T18:40:38.611Z,22.77
2018-10-05T18:43:12.716Z,23.70
2018-10-05T18:45:48.464Z,24.30
2018-10-05T18:48:30.523Z,22.27
2018-10-05T18:51:09.405Z,40.13
2018-10-05T18:53:46.555Z,48.03
2018-10-05T18:56:41.587Z,30.47
2018-10-05T18:59:18.255Z,29.27
2018-10-05T19:01:58.821Z,23.57
2018-10-05T19:04:38.613Z,22.30
2018-10-05T19:07:16.856Z,23.67
2018-10-05T19:09:52.655Z,29.40
2018-10-05T19:12:28.287Z,28.53
2018-10-05T19:15:06.950Z,30.53
2018-10-05T19:17:43.621Z,25.47
2018-10-05T19:20:21.481Z,29.97
2018-10-05T19:23:01.372Z,29.20
2018-10-05T19:25:41.393Z,25.87
2018-10-05T19:28:22.008Z,25.47
2018-10-05T19:31:00.978Z,24.83
2018-10-05T19:33:41.238Z,29.63
2018-10-05T19:36:23.403Z,30.80
2018-10-05T19:39:01.041Z,30.40
2018-10-05T19:41:36.895Z,26.83
2018-10-05T19:44:13.399Z,27.17
2018-10-05T19:46:51.572Z,26.73
2018-10-05T19:49:35.520Z,25.47
2018-10-05T19:52:16.595Z,23.97
2018-10-05T19:54:47.823Z,29.93
2018-10-05T19:57:17.999Z,27.23
2018-10-05T19:59:48.881Z,26.87
2018-10-05T20:02:19.815Z,26.70
2018-10-05T20:04:50.485Z,27.40
2018-10-05T20:07:20.630Z,27.57
2018-10-05T20:09:50.790Z,27.33
2018-10-05T20:12:20.891Z,26.53
2018-10-05T20:14:50.977Z,30.23
2018-10-05T20:17:21.078Z,29.23
2018-10-05T20:19:51.216Z,28.43
2018-10-05T20:22:21.309Z,26.63
2018-10-05T20:24:51.431Z,29.00
2018-10-05T20:27:22.460Z,27.00
2018-10-05T20:29:52.659Z,29.53
2018-10-05T20:32:23.019Z,28.30
2018-10-05T20:34:53.169Z,28.43
2018-10-05T20:37:23.554Z,27.50
2018-10-05T20:39:53.465Z,26.63
2018-10-05T20:42:23.571Z,24.13
2018-10-05T20:44:53.719Z,24.83
2018-10-05T20:47:23.812Z,23.93
2018-10-05T20:49:53.924Z,25.57
2018-10-05T20:52:24.118Z,25.53
2018-10-05T20:54:54.233Z,25.20
2018-10-05T20:57:24.337Z,24.60
2018-10-05T20:59:54.441Z,24.80
2018-10-05T21:02:24.568Z,28.83
2018-10-05T21:04:54.689Z,25.17
2018-10-05T21:07:25.514Z,25.87
2018-10-05T21:09:55.633Z,24.20
2018-10-05T21:12:25.749Z,25.53
2018-10-05T21:14:55.999Z,27.90
2018-10-05T21:17:26.061Z,26.27
2018-10-05T21:19:56.345Z,40.40
2018-10-05T21:22:26.516Z,34.53
2018-10-05T21:24:56.662Z,35.93
2018-10-05T21:27:26.781Z,26.00
2018-10-05T21:29:56.976Z,28.43
2018-10-05T21:32:31.932Z,25.17
2018-10-05T21:35:02.081Z,28.03
2018-10-05T21:37:32.623Z,25.63
2018-10-05T21:40:02.809Z,25.10
2018-10-05T21:42:33.036Z,27.53
2018-10-05T21:45:03.225Z,27.27
2018-10-05T21:47:33.311Z,25.20
2018-10-05T21:50:03.438Z,28.17
2018-10-05T21:52:33.898Z,26.00
2018-10-05T21:55:03.994Z,25.77
2018-10-05T21:57:34.110Z,22.93
2018-10-05T22:00:05.253Z,27.93
2018-10-05T22:02:37.282Z,21.23
2018-10-05T22:05:08.030Z,24.43
2018-10-05T22:07:38.161Z,23.93
2018-10-05T22:10:08.300Z,24.40
2018-10-05T22:12:39.348Z,45.53
2018-10-05T22:15:09.805Z,33.17
2018-10-05T22:17:40.614Z,28.90
2018-10-05T22:20:11.841Z,24.60
2018-10-05T22:22:42.323Z,25.70
2018-10-05T22:25:12.453Z,30.83
2018-10-05T22:27:42.566Z,30.23
2018-10-05T22:30:12.701Z,43.93
2018-10-05T22:32:42.786Z,48.63
2018-10-05T22:35:12.968Z,36.77
2018-10-05T22:37:43.050Z,29.47
2018-10-05T22:40:13.188Z,25.17
2018-10-05T22:42:43.297Z,26.40
2018-10-05T22:45:13.453Z,24.00
2018-10-05T22:47:43.568Z,24.60
2018-10-05T22:50:13.690Z,25.73
2018-10-05T22:52:43.796Z,25.87
2018-10-05T22:55:13.893Z,27.00
2018-10-05T22:57:44.029Z,24.80
2018-10-05T23:00:14.212Z,24.67
2018-10-05T23:02:44.308Z,24.27
2018-10-05T23:05:14.445Z,23.27
2018-10-05T23:07:44.577Z,22.50
2018-10-05T23:10:14.693Z,22.17
2018-10-05T23:12:44.821Z,22.10
2018-10-05T23:15:14.983Z,24.03
2018-10-05T23:17:45.120Z,24.73
2018-10-05T23:20:15.241Z,22.70
2018-10-05T23:22:45.384Z,21.77
2018-10-05T23:25:15.517Z,37.33
2018-10-05T23:27:45.697Z,40.10
2018-10-05T23:30:15.825Z,25.07
2018-10-05T23:32:45.924Z,21.87
2018-10-05T23:35:16.101Z,27.77
2018-10-05T23:37:46.241Z,25.23
2018-10-05T23:40:16.369Z,23.07
2018-10-05T23:42:46.512Z,23.47
2018-10-05T23:45:16.687Z,23.60
2018-10-05T23:47:46.945Z,23.70
2018-10-05T23:50:17.428Z,27.03
2018-10-05T23:52:48.617Z,23.33
2018-10-05T23:55:19.009Z,25.90
2018-10-05T23:57:49.424Z,27.37
